Time;durP1;ratioP1;P1;durP2;ratioP2;P2;SDS_P1;SDS_P2;PMS_P1;PMS_P2;Temp;Humidity;BMP_temperature;BMP_pressure;BME280_temperature;BME280_humidity;BME280_pressure;Samples;Min_cycle;Max_cycle;Signal;HPM_P1;HPM_P2
2023/05/31 00:01:16;;;;;;;6.22;2.58;;;9.90;99.90;;;;;;5053239;28;20411;-81
2023/05/31 00:03:43;;;;;;;4.63;2.80;;;9.80;99.90;;;;;;5068053;28;20059;-81
2023/05/31 00:06:12;;;;;;;7.50;2.17;;;10.20;99.90;;;;;;5054244;28;20401;-80
2023/05/31 00:08:39;;;;;;;7.35;2.42;;;11.60;99.90;;;;;;5067817;28;20051;-81
2023/05/31 00:11:06;;;;;;;5.80;2.58;;;10.10;99.90;;;;;;5087740;28;20449;-80
2023/05/31 00:13:32;;;;;;;5.47;2.30;;;9.80;99.90;;;;;;5086942;28;20125;-80
2023/05/31 00:15:58;;;;;;;5.80;2.70;;;9.80;99.90;;;;;;5068090;28;20045;-81
2023/05/31 00:18:24;;;;;;;5.15;2.85;;;10.00;99.90;;;;;;5087839;28;20032;-81
2023/05/31 00:20:50;;;;;;;5.65;2.88;;;10.50;99.90;;;;;;5085782;28;20115;-81
2023/05/31 00:23:16;;;;;;;4.93;2.58;;;10.00;99.90;;;;;;5069998;28;20380;-81
2023/05/31 00:25:41;;;;;;;4.07;2.58;;;9.70;99.90;;;;;;5034279;28;20051;-81
2023/05/31 00:28:07;;;;;;;6.80;2.70;;;9.60;99.90;;;;;;5069678;28;20036;-81
2023/05/31 00:30:33;;;;;;;4.57;2.35;;;9.70;99.90;;;;;;5068408;28;20226;-81
2023/05/31 00:32:58;;;;;;;4.68;2.63;;;9.60;99.90;;;;;;5086728;28;20097;-81
2023/05/31 00:35:24;;;;;;;5.35;2.40;;;9.60;99.90;;;;;;5069354;28;20624;-81
2023/05/31 00:37:50;;;;;;;6.28;2.78;;;9.50;99.90;;;;;;5067012;28;20140;-81
2023/05/31 00:40:16;;;;;;;7.05;2.85;;;9.70;99.90;;;;;;5069805;28;20051;-81
2023/05/31 00:42:41;;;;;;;4.47;2.60;;;11.20;99.90;;;;;;5033277;28;20051;-82
2023/05/31 00:45:07;;;;;;;3.97;2.13;;;9.50;99.90;;;;;;5051992;28;20050;-81
2023/05/31 00:47:35;;;;;;;5.25;2.95;;;9.40;99.90;;;;;;5051241;28;20111;-82
2023/05/31 00:50:01;;;;;;;4.40;2.40;;;9.40;99.90;;;;;;5068621;28;20044;-81
2023/05/31 00:52:28;;;;;;;3.83;2.85;;;9.30;99.90;;;;;;5069080;28;20058;-81
2023/05/31 00:54:55;;;;;;;6.88;3.05;;;9.30;99.90;;;;;;5085731;28;20512;-81
2023/05/31 00:57:20;;;;;;;5.70;2.67;;;9.40;99.90;;;;;;5087865;28;20384;-81
2023/05/31 00:59:46;;;;;;;5.40;2.75;;;9.30;99.90;;;;;;5049542;28;20048;-81
2023/05/31 01:02:14;;;;;;;3.53;2.58;;;9.20;99.90;;;;;;5069725;28;20032;-82
2023/05/31 01:04:39;;;;;;;6.65;2.97;;;10.20;99.90;;;;;;5067538;28;20392;-81
2023/05/31 01:07:08;;;;;;;7.03;3.13;;;9.20;99.90;;;;;;5067596;28;20048;-80
2023/05/31 01:09:35;;;;;;;8.07;3.10;;;9.20;99.90;;;;;;5086434;28;20127;-80
2023/05/31 01:12:21;;;;;;;8.43;2.63;;;9.30;99.90;;;;;;5049811;28;20054;-81
2023/05/31 01:15:00;;;;;;;5.60;2.60;;;9.10;99.90;;;;;;5068895;28;20078;-80
2023/05/31 01:17:38;;;;;;;8.10;2.55;;;9.10;99.90;;;;;;5067038;28;20056;-80
2023/05/31 01:20:08;;;;;;;7.00;3.40;;;9.00;99.90;;;;;;5051732;28;20075;-80
2023/05/31 01:23:02;;;;;;;6.05;3.33;;;9.00;99.90;;;;;;5051143;28;20521;-80
2023/05/31 01:25:35;;;;;;;;;;;9.00;99.90;;;;;;5066199;28;20395;-80
2023/05/31 01:28:04;;;;;;;6.32;2.03;;;9.00;99.90;;;;;;5068327;28;19924;-80
2023/05/31 01:30:30;;;;;;;5.97;3.13;;;9.30;99.90;;;;;;5066548;28;20123;-80
2023/05/31 01:32:58;;;;;;;5.43;3.00;;;8.90;99.90;;;;;;5066908;28;20062;-80
2023/05/31 01:35:24;;;;;;;6.82;3.60;;;8.90;99.90;;;;;;5067298;28;20101;-81
2023/05/31 01:37:50;;;;;;;10.75;3.03;;;8.90;99.90;;;;;;5066453;28;20040;-80
2023/05/31 01:40:17;;;;;;;6.30;3.40;;;8.90;99.90;;;;;;5051972;28;20056;-80
2023/05/31 01:42:45;;;;;;;5.60;2.90;;;9.70;99.90;;;;;;5031786;28;20055;-80
2023/05/31 01:45:13;;;;;;;6.57;3.10;;;8.80;99.90;;;;;;5086720;28;20047;-80
2023/05/31 01:47:41;;;;;;;5.45;3.13;;;8.80;99.90;;;;;;5065869;28;20039;-80
2023/05/31 01:50:09;;;;;;;4.45;2.38;;;8.90;99.90;;;;;;5066365;28;20048;-80
2023/05/31 01:52:36;;;;;;;6.70;3.10;;;8.80;99.90;;;;;;5085455;28;20048;-80
2023/05/31 01:55:03;;;;;;;5.20;3.20;;;8.70;99.90;;;;;;5083231;28;20502;-80
2023/05/31 01:57:31;;;;;;;6.30;2.95;;;8.70;99.90;;;;;;5051192;28;20504;-80
2023/05/31 01:59:59;;;;;;;6.15;2.95;;;8.60;99.90;;;;;;5083565;28;20332;-81
2023/05/31 02:02:26;;;;;;;6.32;2.97;;;9.20;99.90;;;;;;5067657;28;20078;-80
2023/05/31 02:05:08;;;;;;;5.20;2.60;;;8.80;99.90;;;;;;5065917;28;20119;-80
2023/05/31 02:07:35;;;;;;;6.60;3.10;;;8.50;99.90;;;;;;5083920;28;20032;-81
2023/05/31 02:10:02;;;;;;;5.85;3.10;;;9.70;99.90;;;;;;5066889;28;20131;-80
2023/05/31 02:12:28;;;;;;;5.18;3.05;;;8.50;99.90;;;;;;5064436;28;20075;-80
2023/05/31 02:14:54;;;;;;;7.90;3.70;;;10.10;99.90;;;;;;5086257;28;20517;-80
2023/05/31 02:17:23;;;;;;;4.82;3.28;;;9.90;99.90;;;;;;5082852;28;20076;-80
2023/05/31 02:19:51;;;;;;;5.50;3.03;;;8.50;99.90;;;;;;5051414;28;20040;-80
2023/05/31 02:22:17;;;;;;;6.18;3.40;;;10.00;99.90;;;;;;5084119;28;20553;-80
2023/05/31 02:24:43;;;;;;;5.50;2.90;;;9.20;99.90;;;;;;5065924;28;20040;-80
2023/05/31 02:27:08;;;;;;;7.38;2.97;;;8.40;99.90;;;;;;5067124;28;20480;-80
2023/05/31 02:29:34;;;;;;;4.95;2.92;;;8.50;99.90;;;;;;5083129;28;20116;-81
2023/05/31 02:32:00;;;;;;;7.28;2.80;;;8.40;99.90;;;;;;5067521;28;20043;-80
2023/05/31 02:34:26;;;;;;;4.55;3.00;;;8.40;99.90;;;;;;5047772;28;20052;-80
2023/05/31 02:36:52;;;;;;;6.38;3.03;;;7.40;99.90;;;;;;5085320;28;20039;-81
2023/05/31 02:39:18;;;;;;;6.70;3.17;;;8.30;99.90;;;;;;5049407;28;20484;-80
2023/05/31 02:41:44;;;;;;;5.90;3.10;;;8.30;99.90;;;;;;5065090;28;20467;-81
2023/05/31 02:44:10;;;;;;;7.22;2.72;;;8.30;99.90;;;;;;5066128;28;20038;-81
2023/05/31 02:46:36;;;;;;;6.43;3.00;;;10.00;99.90;;;;;;5047936;28;20055;-81
2023/05/31 02:49:02;;;;;;;9.77;3.40;;;8.20;99.90;;;;;;5066891;28;20055;-81
2023/05/31 02:51:28;;;;;;;4.57;2.60;;;8.20;99.90;;;;;;5048008;28;20059;-81
2023/05/31 02:53:54;;;;;;;4.63;2.33;;;8.70;99.90;;;;;;5084838;28;20391;-81
2023/05/31 02:56:20;;;;;;;5.50;3.10;;;8.20;99.90;;;;;;5064818;28;20170;-80
2023/05/31 02:58:46;;;;;;;5.20;2.65;;;8.10;99.90;;;;;;5065095;28;20508;-81
2023/05/31 03:01:13;;;;;;;6.50;2.58;;;9.40;99.90;;;;;;5066049;28;20140;-81
2023/05/31 03:03:39;;;;;;;6.78;2.90;;;8.10;99.90;;;;;;5064821;28;20054;-81
2023/05/31 03:06:05;;;;;;;5.50;2.50;;;8.10;99.90;;;;;;5049692;28;20078;-81
2023/05/31 03:08:31;;;;;;;4.65;2.60;;;8.10;99.90;;;;;;5046574;28;20085;-81
2023/05/31 03:10:57;;;;;;;5.90;2.50;;;8.10;99.90;;;;;;5051370;28;20094;-81
2023/05/31 03:13:23;;;;;;;7.53;2.38;;;8.30;99.90;;;;;;5049282;28;20064;-81
2023/05/31 03:15:48;;;;;;;4.55;2.47;;;8.10;99.90;;;;;;5066633;28;20040;-81
2023/05/31 03:18:14;;;;;;;4.55;2.30;;;8.00;99.90;;;;;;5049973;28;20407;-81
2023/05/31 03:20:40;;;;;;;3.50;1.95;;;8.00;99.90;;;;;;5066373;28;20058;-81
2023/05/31 03:23:08;;;;;;;5.50;2.42;;;8.80;99.90;;;;;;5050547;28;20101;-81
2023/05/31 03:25:34;;;;;;;3.53;1.80;;;9.20;99.90;;;;;;5065424;28;20056;-81
2023/05/31 03:28:00;;;;;;;7.97;2.30;;;8.80;99.90;;;;;;5067684;28;20453;-81
2023/05/31 03:30:25;;;;;;;4.25;2.22;;;8.00;99.90;;;;;;5049247;28;20048;-81
2023/05/31 03:32:51;;;;;;;7.80;2.13;;;7.90;99.90;;;;;;5066635;28;20407;-80
2023/05/31 03:35:17;;;;;;;6.40;1.70;;;8.00;99.90;;;;;;5065930;28;20101;-80
2023/05/31 03:37:43;;;;;;;6.47;1.90;;;8.00;99.90;;;;;;5033651;28;20044;-80
2023/05/31 03:40:09;;;;;;;5.05;1.88;;;8.00;99.90;;;;;;5050672;28;20532;-80
2023/05/31 03:42:35;;;;;;;5.15;1.90;;;8.00;99.90;;;;;;5031897;28;20087;-80
2023/05/31 03:45:01;;;;;;;2.30;1.42;;;8.20;99.90;;;;;;5049197;28;20036;-80
2023/05/31 03:47:27;;;;;;;4.72;2.22;;;8.00;99.90;;;;;;5064782;28;20164;-80
2023/05/31 03:49:53;;;;;;;2.35;1.45;;;8.00;99.90;;;;;;5033755;28;20587;-80
2023/05/31 03:52:19;;;;;;;6.13;1.88;;;8.00;99.90;;;;;;5031933;28;20036;-80
2023/05/31 03:54:46;;;;;;;3.95;1.83;;;8.10;99.90;;;;;;5066653;28;20522;-80
2023/05/31 03:57:12;;;;;;;3.25;1.83;;;8.10;99.90;;;;;;5049980;28;20412;-80
2023/05/31 03:59:38;;;;;;;7.35;1.70;;;8.10;99.90;;;;;;5049958;28;20086;-80
2023/05/31 04:02:04;;;;;;;6.53;2.40;;;8.10;99.90;;;;;;5066517;28;20492;-80
2023/05/31 04:04:30;;;;;;;5.07;1.85;;;8.10;99.90;;;;;;5032038;28;20487;-80
2023/05/31 04:06:55;;;;;;;4.65;2.28;;;8.30;99.90;;;;;;5066554;28;20046;-82
2023/05/31 04:09:23;;;;;;;4.45;2.13;;;8.20;99.90;;;;;;5032251;28;20084;-81
2023/05/31 04:11:49;;;;;;;4.03;1.98;;;8.80;99.90;;;;;;5065764;28;20051;-83
2023/05/31 04:14:15;;;;;;;7.25;2.50;;;8.30;99.90;;;;;;5048835;28;20432;-82
2023/05/31 04:16:41;;;;;;;4.90;2.83;;;8.40;99.90;;;;;;5065914;28;20050;-80
2023/05/31 04:19:07;;;;;;;7.05;2.83;;;8.60;99.90;;;;;;5065659;28;20135;-81
2023/05/31 04:21:32;;;;;;;4.30;2.40;;;8.50;99.90;;;;;;5052738;28;20052;-80
2023/05/31 04:23:59;;;;;;;8.15;2.95;;;8.50;99.90;;;;;;5069279;28;20089;-83
2023/05/31 04:26:25;;;;;;;5.13;2.78;;;8.60;99.90;;;;;;5052489;28;20395;-82
2023/05/31 04:28:54;;;;;;;7.88;3.30;;;8.70;99.90;;;;;;5052379;28;20044;-80
2023/05/31 04:31:24;;;;;;;6.22;3.10;;;8.70;99.90;;;;;;5052042;28;20044;-81
2023/05/31 04:33:53;;;;;;;8.27;3.45;;;9.70;99.90;;;;;;5068746;28;20059;-80
2023/05/31 04:36:20;;;;;;;7.53;3.10;;;9.70;99.90;;;;;;5052217;28;20044;-80
2023/05/31 04:38:47;;;;;;;5.93;3.55;;;9.00;99.90;;;;;;5069053;28;20271;-81
2023/05/31 04:41:15;;;;;;;5.55;3.30;;;9.10;99.90;;;;;;5052711;28;20052;-80
2023/05/31 04:43:42;;;;;;;5.78;3.40;;;9.10;99.90;;;;;;5053223;28;20043;-81
2023/05/31 04:46:09;;;;;;;9.70;3.08;;;9.30;99.90;;;;;;5053338;28;20465;-81
2023/05/31 04:48:36;;;;;;;10.95;3.60;;;9.40;99.90;;;;;;5052539;28;20068;-81
2023/05/31 04:51:03;;;;;;;12.25;3.67;;;9.50;99.90;;;;;;5036147;28;20491;-80
2023/05/31 04:53:30;;;;;;;7.97;3.15;;;9.60;99.90;;;;;;5050874;28;20040;-81
2023/05/31 04:55:55;;;;;;;4.72;3.28;;;9.70;99.90;;;;;;5069955;28;20505;-81
2023/05/31 04:58:21;;;;;;;6.82;3.67;;;9.80;99.90;;;;;;5068627;28;20539;-82
2023/05/31 05:00:47;;;;;;;6.97;3.25;;;10.90;99.90;;;;;;5051298;28;20134;-81
2023/05/31 05:03:13;;;;;;;5.03;2.90;;;10.10;99.90;;;;;;5051943;28;20091;-80
2023/05/31 05:05:39;;;;;;;10.80;3.30;;;10.20;99.90;;;;;;5068769;28;20063;-81
2023/05/31 05:08:05;;;;;;;9.50;3.85;;;10.30;99.90;;;;;;5068695;28;20475;-81
2023/05/31 05:10:30;;;;;;;7.53;3.50;;;10.50;99.90;;;;;;5050452;28;20040;-81
2023/05/31 05:12:56;;;;;;;8.18;3.53;;;10.60;99.90;;;;;;5068777;28;20087;-82
2023/05/31 05:15:22;;;;;;;16.08;5.10;;;10.80;99.90;;;;;;5068169;28;20040;-82
2023/05/31 05:17:47;;;;;;;8.63;3.67;;;10.90;99.90;;;;;;5051642;28;20100;-82
2023/05/31 05:20:13;;;;;;;8.55;3.47;;;11.60;99.90;;;;;;5049079;28;20048;-80
2023/05/31 05:22:41;;;;;;;11.93;4.28;;;11.20;99.90;;;;;;5034680;28;20156;-81
2023/05/31 05:25:07;;;;;;;13.00;4.40;;;11.30;99.90;;;;;;5051002;28;20110;-81
2023/05/31 05:27:33;;;;;;;8.98;4.47;;;11.40;99.90;;;;;;5051265;28;20032;-81
2023/05/31 05:29:59;;;;;;;12.80;4.63;;;11.60;99.90;;;;;;5067892;28;20036;-81
2023/05/31 05:32:24;;;;;;;11.68;4.45;;;11.10;99.90;;;;;;5049829;28;20051;-81
2023/05/31 05:34:50;;;;;;;8.18;4.47;;;11.80;99.90;;;;;;5067496;28;20047;-81
2023/05/31 05:37:16;;;;;;;14.93;4.50;;;11.90;99.90;;;;;;5066037;28;20150;-81
2023/05/31 05:39:41;;;;;;;8.93;4.38;;;12.10;99.90;;;;;;5066982;28;20047;-81
2023/05/31 05:42:07;;;;;;;12.82;4.60;;;12.20;99.90;;;;;;5050520;28;20047;-81
2023/05/31 05:44:33;;;;;;;14.70;5.03;;;12.40;99.90;;;;;;5068500;28;20044;-81
2023/05/31 05:46:59;;;;;;;15.10;4.40;;;12.50;99.90;;;;;;5034921;28;20624;-83
2023/05/31 05:49:25;;;;;;;12.57;3.50;;;12.70;99.90;;;;;;5050362;28;20398;-84
2023/05/31 05:51:50;;;;;;;12.55;3.85;;;12.90;99.90;;;;;;5051831;28;20048;-85
2023/05/31 05:54:16;;;;;;;9.20;3.00;;;13.00;99.90;;;;;;5034431;28;20051;-84
2023/05/31 05:56:42;;;;;;;10.00;3.70;;;13.10;99.90;;;;;;5035298;28;20040;-85
2023/05/31 05:59:08;;;;;;;12.77;3.17;;;13.30;99.90;;;;;;5046674;28;20063;-84
2023/05/31 06:01:35;;;;;;;12.02;2.75;;;13.40;99.90;;;;;;5047985;28;20529;-84
2023/05/31 06:04:01;;;;;;;5.57;2.50;;;13.50;99.90;;;;;;5030885;28;20606;-84
2023/05/31 06:06:27;;;;;;;11.40;3.10;;;13.50;99.90;;;;;;5047536;28;20484;-83
2023/05/31 06:08:53;;;;;;;7.22;3.15;;;13.70;99.90;;;;;;5031895;28;20055;-82
2023/05/31 06:11:18;;;;;;;12.30;3.17;;;13.80;99.90;;;;;;5063533;28;20041;-83
2023/05/31 06:13:44;;;;;;;7.70;2.85;;;13.90;99.90;;;;;;5048951;28;20190;-83
2023/05/31 06:16:10;;;;;;;10.07;3.47;;;14.00;99.90;;;;;;5063685;28;20048;-83
2023/05/31 06:18:35;;;;;;;7.78;2.83;;;14.10;99.90;;;;;;5065035;28;20055;-83
2023/05/31 06:21:01;;;;;;;8.55;2.95;;;14.20;99.90;;;;;;5064628;28;20040;-83
2023/05/31 06:23:28;;;;;;;6.65;2.72;;;14.30;99.90;;;;;;5047281;28;20561;-83
2023/05/31 06:25:53;;;;;;;5.20;1.73;;;14.50;99.90;;;;;;5046907;28;20044;-83
2023/05/31 06:28:19;;;;;;;7.50;2.45;;;14.60;99.90;;;;;;5063179;28;20052;-83
2023/05/31 06:30:45;;;;;;;8.30;1.95;;;14.70;99.90;;;;;;5030358;28;20040;-83
2023/05/31 06:33:12;;;;;;;9.18;2.05;;;14.80;99.90;;;;;;5046778;28;20045;-83
2023/05/31 06:35:39;;;;;;;4.90;1.75;;;14.90;99.90;;;;;;5047661;28;20341;-83
2023/05/31 06:38:05;;;;;;;4.55;1.67;;;14.90;99.90;;;;;;5062581;28;20119;-85
2023/05/31 06:40:31;;;;;;;7.07;1.85;;;15.00;99.90;;;;;;5030306;28;20076;-85
2023/05/31 06:42:56;;;;;;;6.78;1.83;;;15.10;99.90;;;;;;5012433;28;20044;-85
2023/05/31 06:45:23;;;;;;;7.88;2.97;;;15.20;99.90;;;;;;5029222;28;20045;-85
2023/05/31 06:47:49;;;;;;;6.88;2.00;;;15.30;99.90;;;;;;5063548;28;20037;-84
2023/05/31 06:50:15;;;;;;;5.15;2.00;;;15.40;99.90;;;;;;5046483;28;20040;-85
2023/05/31 06:52:41;;;;;;;2.67;1.58;;;15.50;99.90;;;;;;5063334;28;20067;-85
2023/05/31 06:55:08;;;;;;;2.65;1.38;;;15.60;99.90;;;;;;5029325;28;20048;-85
2023/05/31 06:57:33;;;;;;;9.93;2.63;;;15.70;99.90;;;;;;5063556;28;20123;-84
2023/05/31 06:59:59;;;;;;;7.15;1.95;;;15.80;99.90;;;;;;5030378;28;20496;-85
2023/05/31 07:02:27;;;;;;;3.13;1.70;;;15.90;99.90;;;;;;5046358;28;20455;-85
2023/05/31 07:04:52;;;;;;;10.07;2.30;;;15.90;99.90;;;;;;5046034;28;20080;-85
2023/05/31 07:07:18;;;;;;;4.10;1.95;;;16.00;99.90;;;;;;5062623;28;20041;-85
2023/05/31 07:09:44;;;;;;;6.70;2.10;;;16.10;99.90;;;;;;5046944;28;20087;-85
2023/05/31 07:12:10;;;;;;;5.25;1.90;;;16.10;99.90;;;;;;5029404;28;20036;-84
2023/05/31 07:14:36;;;;;;;6.28;2.10;;;16.20;99.90;;;;;;5047664;28;20044;-84
2023/05/31 07:17:01;;;;;;;5.18;1.63;;;16.20;99.90;;;;;;5062413;28;20076;-84
2023/05/31 07:19:30;;;;;;;4.45;1.63;;;16.30;99.90;;;;;;5064617;28;20083;-83
2023/05/31 07:21:55;;;;;;;4.25;1.13;;;16.30;99.90;;;;;;5063335;28;20044;-84
2023/05/31 07:24:21;;;;;;;4.18;1.17;;;16.40;99.90;;;;;;5045903;28;20032;-84
2023/05/31 07:26:47;;;;;;;3.97;1.17;;;16.40;99.90;;;;;;5064362;28;20391;-84
2023/05/31 07:29:13;;;;;;;6.38;1.35;;;16.60;99.90;;;;;;5062347;28;20040;-83
2023/05/31 07:31:38;;;;;;;3.65;0.77;;;16.60;99.90;;;;;;5063651;28;20048;-84
2023/05/31 07:34:04;;;;;;;2.58;0.90;;;16.70;99.90;;;;;;5063115;28;20052;-84
2023/05/31 07:36:30;;;;;;;2.90;1.77;;;16.80;99.90;;;;;;5063319;28;20139;-83
2023/05/31 07:38:56;;;;;;;3.17;0.63;;;16.80;99.90;;;;;;5029997;28;20045;-83
2023/05/31 07:41:22;;;;;;;5.18;0.52;;;16.90;99.90;;;;;;5046741;28;20114;-84
2023/05/31 07:43:47;;;;;;;4.10;1.00;;;17.10;99.90;;;;;;5062985;28;20048;-84
2023/05/31 07:46:14;;;;;;;1.67;0.70;;;17.10;99.90;;;;;;5062953;28;20049;-84
2023/05/31 07:48:39;;;;;;;3.10;0.80;;;17.20;99.90;;;;;;5064177;28;20442;-83
2023/05/31 07:51:05;;;;;;;3.20;0.55;;;17.20;99.90;;;;;;5062241;28;20125;-82
2023/05/31 07:53:31;;;;;;;3.60;0.80;;;17.30;99.90;;;;;;5065757;28;20084;-83
2023/05/31 07:55:57;;;;;;;4.55;0.90;;;18.70;99.90;;;;;;5066462;28;20087;-83
2023/05/31 07:58:23;;;;;;;5.00;0.90;;;17.40;99.90;;;;;;5066497;28;20056;-82
2023/05/31 08:00:52;;;;;;;3.92;0.60;;;17.50;99.90;;;;;;5066506;28;20045;-83
2023/05/31 08:03:17;;;;;;;2.10;0.57;;;17.60;99.90;;;;;;5050772;28;20080;-82
2023/05/31 08:05:45;;;;;;;5.05;1.05;;;17.70;99.90;;;;;;5050231;28;20574;-82
2023/05/31 08:08:10;;;;;;;3.90;1.00;;;17.70;99.90;;;;;;5049094;28;20047;-84
2023/05/31 08:10:36;;;;;;;4.65;1.50;;;17.80;99.90;;;;;;5067279;28;20044;-83
2023/05/31 08:13:02;;;;;;;4.47;1.60;;;18.00;99.90;;;;;;5049862;28;20076;-82
2023/05/31 08:15:32;;;;;;;8.18;1.63;;;18.10;99.90;;;;;;5050260;28;20170;-83
2023/05/31 08:17:58;;;;;;;5.32;1.45;;;18.20;99.90;;;;;;5049320;28;20044;-82
2023/05/31 08:20:25;;;;;;;3.83;1.17;;;18.20;99.90;;;;;;5066399;28;20091;-82
2023/05/31 08:22:52;;;;;;;6.65;1.02;;;18.40;99.90;;;;;;5066641;28;20494;-83
2023/05/31 08:25:18;;;;;;;6.93;1.88;;;18.60;99.90;;;;;;5067050;28;20492;-83
2023/05/31 08:27:44;;;;;;;4.20;0.90;;;18.80;99.90;;;;;;5066712;28;20055;-84
2023/05/31 08:30:11;;;;;;;2.25;1.00;;;18.70;99.90;;;;;;5049261;28;20048;-82
2023/05/31 08:32:38;;;;;;;2.70;1.10;;;18.60;99.90;;;;;;5050288;28;20049;-83
2023/05/31 08:35:06;;;;;;;2.88;0.90;;;18.70;99.90;;;;;;5067276;28;20067;-83
2023/05/31 08:37:32;;;;;;;5.22;0.70;;;18.80;99.90;;;;;;5067042;28;20087;-83
2023/05/31 08:39:58;;;;;;;8.13;1.10;;;18.90;99.90;;;;;;5067875;28;20093;-83
2023/05/31 08:42:42;;;;;;;2.58;0.95;;;18.80;99.90;;;;;;5065764;28;20037;-82
2023/05/31 08:45:10;;;;;;;5.38;0.88;;;18.80;99.90;;;;;;5066670;28;20057;-82
2023/05/31 08:47:45;;;;;;;3.78;1.02;;;18.80;99.90;;;;;;5065718;28;20070;-82
2023/05/31 08:50:12;;;;;;;4.45;1.10;;;18.90;99.90;;;;;;5066173;28;20131;-83
2023/05/31 08:52:39;;;;;;;4.88;1.42;;;19.10;99.90;;;;;;5050098;28;20093;-82
2023/05/31 08:55:05;;;;;;;4.32;1.38;;;19.40;99.90;;;;;;5066653;28;20052;-83
2023/05/31 08:57:33;;;;;;;8.52;2.08;;;19.80;99.90;;;;;;5066658;28;20404;-83
2023/05/31 09:00:08;;;;;;;2.78;1.40;;;20.00;99.90;;;;;;5049642;28;20052;-83
2023/05/31 09:02:34;;;;;;;9.13;1.73;;;20.20;99.90;;;;;;5050376;28;20048;-82
2023/05/31 09:05:01;;;;;;;3.90;1.40;;;20.40;99.90;;;;;;5065870;28;20066;-82
2023/05/31 09:07:26;;;;;;;8.20;1.80;;;20.60;99.90;;;;;;5049699;28;20044;-82
2023/05/31 09:09:52;;;;;;;6.93;2.28;;;20.70;99.90;;;;;;5068019;28;20503;-82
2023/05/31 09:12:18;;;;;;;5.07;1.48;;;20.70;99.90;;;;;;5066037;28;20040;-82
2023/05/31 09:14:46;;;;;;;8.25;1.50;;;20.80;99.90;;;;;;5065394;28;20060;-86
2023/05/31 09:17:12;;;;;;;8.70;1.50;;;20.80;99.90;;;;;;5048512;28;20546;-83
2023/05/31 09:19:59;;;;;;;6.35;1.48;;;20.60;99.90;;;;;;5065951;28;20103;-84
2023/05/31 09:22:24;;;;;;;5.25;1.80;;;20.30;99.90;;;;;;5065267;28;20049;-84
2023/05/31 09:24:59;;;;;;;4.65;1.50;;;20.00;99.90;;;;;;5065411;28;20037;-83
2023/05/31 09:27:26;;;;;;;8.40;1.65;;;19.60;99.90;;;;;;5048886;28;20041;-83
2023/05/31 09:29:53;;;;;;;6.88;1.90;;;19.30;99.90;;;;;;5066090;28;20041;-83
2023/05/31 09:32:19;;;;;;;13.18;2.03;;;19.30;99.90;;;;;;5064652;28;20120;-84
2023/05/31 09:34:46;;;;;;;6.05;1.77;;;19.10;99.90;;;;;;5047467;28;20043;-84
2023/05/31 09:37:23;;;;;;;6.70;2.08;;;18.90;99.90;;;;;;5031239;28;20446;-83
2023/05/31 09:39:56;;;;;;;5.90;2.00;;;18.80;99.90;;;;;;5066503;28;20048;-81
2023/05/31 09:42:24;;;;;;;9.65;1.98;;;18.50;99.90;;;;;;5065796;28;20053;-82
2023/05/31 09:44:51;;;;;;;7.03;2.42;;;18.40;99.90;;;;;;5064493;28;20041;-82
2023/05/31 09:47:22;;;;;;;5.75;2.10;;;18.20;99.90;;;;;;5065064;28;20052;-81
2023/05/31 09:49:48;;;;;;;5.38;1.90;;;18.20;99.90;;;;;;5065408;28;20071;-82
2023/05/31 09:52:14;;;;;;;5.03;1.88;;;18.30;99.90;;;;;;5064655;28;20495;-82
2023/05/31 09:54:39;;;;;;;7.85;2.75;;;18.50;99.90;;;;;;5065929;28;20045;-82
2023/05/31 09:57:05;;;;;;;6.00;2.05;;;18.40;99.90;;;;;;5065242;28;20075;-81
2023/05/31 09:59:34;;;;;;;5.65;2.10;;;18.30;99.90;;;;;;5067537;28;20141;-82
2023/05/31 10:02:02;;;;;;;6.05;2.25;;;18.10;99.90;;;;;;5067958;28;20058;-82
2023/05/31 10:04:29;;;;;;;7.75;2.97;;;18.10;99.90;;;;;;5068285;28;20134;-82
2023/05/31 10:06:55;;;;;;;4.43;2.25;;;18.10;99.90;;;;;;5051744;28;20044;-82
2023/05/31 10:09:21;;;;;;;9.63;2.33;;;18.30;99.90;;;;;;5050995;28;20071;-82
2023/05/31 10:11:51;;;;;;;4.97;1.92;;;18.40;99.90;;;;;;5051614;28;20108;-82
2023/05/31 10:14:30;;;;;;;3.95;2.53;;;18.60;99.90;;;;;;5068244;28;20047;-82
2023/05/31 10:16:58;;;;;;;9.35;2.83;;;18.70;99.90;;;;;;5067522;28;20484;-82
2023/05/31 10:19:33;;;;;;;8.80;2.70;;;18.70;99.90;;;;;;5068977;28;20396;-81
2023/05/31 10:22:03;;;;;;;8.32;3.35;;;18.70;99.90;;;;;;5067960;28;20074;-82
2023/05/31 10:24:51;;;;;;;6.15;2.55;;;18.80;99.90;;;;;;5051636;28;20059;-82
2023/05/31 10:27:31;;;;;;;6.55;2.63;;;18.90;99.90;;;;;;5051633;28;20135;-82
2023/05/31 10:30:04;;;;;;;8.95;2.97;;;19.00;99.90;;;;;;5067073;28;20091;-82
2023/05/31 10:32:33;;;;;;;8.27;2.78;;;19.10;99.90;;;;;;5068894;28;20040;-82
2023/05/31 10:35:00;;;;;;;7.13;2.35;;;19.20;99.90;;;;;;5066683;28;20537;-82
2023/05/31 10:37:26;;;;;;;4.55;2.25;;;19.40;99.90;;;;;;5018219;28;20039;-82
2023/05/31 10:39:52;;;;;;;9.40;2.40;;;19.60;99.90;;;;;;5051422;28;20094;-82
2023/05/31 10:42:29;;;;;;;5.22;2.28;;;19.60;99.90;;;;;;5065425;28;20063;-80
2023/05/31 10:45:23;;;;;;;2.53;1.30;;;19.60;99.90;;;;;;5049949;28;20052;-81
2023/05/31 10:48:03;;;;;;;5.40;2.05;;;19.80;99.90;;;;;;5067238;28;20070;-81
2023/05/31 10:50:28;;;;;;;9.63;2.67;;;19.90;99.90;;;;;;5050616;28;20040;-82
2023/05/31 10:53:11;;;;;;;3.60;1.95;;;20.00;99.90;;;;;;5033367;28;20544;-84
2023/05/31 10:55:45;;;;;;;6.22;1.98;;;20.10;99.90;;;;;;5049792;28;20055;-84
2023/05/31 10:58:51;;;;;;;3.97;2.25;;;20.10;99.90;;;;;;5068232;28;20060;-84
2023/05/31 11:01:24;;;;;;;4.43;1.95;;;21.20;99.90;;;;;;5001646;28;20062;-84
2023/05/31 11:03:53;;;;;;;;;;;19.90;99.90;;;;;;5067481;28;20044;-84
2023/05/31 11:06:27;;;;;;;4.70;1.65;;;19.80;99.90;;;;;;5050503;28;19966;-83
2023/05/31 11:09:16;;;;;;;6.18;2.17;;;20.00;99.90;;;;;;5066000;28;20048;-83
2023/05/31 11:11:47;;;;;;;4.00;1.75;;;20.10;99.90;;;;;;5067307;28;20097;-82
2023/05/31 11:14:25;;;;;;;5.68;2.40;;;20.30;99.90;;;;;;5066130;28;20159;-83
2023/05/31 11:16:56;;;;;;;6.85;2.35;;;20.50;99.90;;;;;;5049707;28;20052;-84
2023/05/31 11:19:30;;;;;;;4.68;1.52;;;20.60;99.90;;;;;;5066849;28;20127;-83
2023/05/31 11:21:59;;;;;;;4.38;1.25;;;20.40;99.90;;;;;;5048393;28;20044;-83
2023/05/31 11:24:54;;;;;;;5.18;1.48;;;20.30;99.90;;;;;;5067703;28;20043;-82
2023/05/31 11:27:38;;;;;;;2.22;1.17;;;20.20;99.90;;;;;;5055216;28;20058;-83
2023/05/31 11:30:08;;;;;;;3.53;1.35;;;20.20;99.90;;;;;;5068821;28;20104;-84
2023/05/31 11:32:34;;;;;;;3.95;1.45;;;20.20;99.90;;;;;;5071663;28;20518;-83
2023/05/31 11:35:08;;;;;;;3.88;1.67;;;19.90;99.90;;;;;;5070375;28;20052;-83
2023/05/31 11:37:38;;;;;;;3.67;2.40;;;19.70;99.90;;;;;;5054664;28;20040;-84
2023/05/31 11:40:06;;;;;;;3.42;1.50;;;19.60;99.90;;;;;;5069804;28;20396;-83
2023/05/31 11:42:43;;;;;;;2.70;1.50;;;19.80;99.90;;;;;;5054275;28;20059;-83
2023/05/31 11:45:13;;;;;;;5.30;1.40;;;19.90;99.90;;;;;;5055100;28;20483;-83
2023/05/31 11:48:07;;;;;;;7.00;1.75;;;20.20;99.90;;;;;;5070326;28;20130;-83
2023/05/31 11:50:33;;;;;;;6.55;1.50;;;20.30;99.90;;;;;;5071123;28;20373;-83
2023/05/31 11:53:02;;;;;;;3.35;1.27;;;20.50;99.90;;;;;;5052464;28;20036;-83
2023/05/31 11:55:37;;;;;;;5.38;1.60;;;20.60;99.90;;;;;;5036874;28;20533;-82
2023/05/31 11:58:06;;;;;;;2.95;1.30;;;20.70;99.90;;;;;;5053671;28;20412;-84
2023/05/31 12:00:34;;;;;;;4.05;1.20;;;20.70;99.90;;;;;;5052416;28;20052;-83
2023/05/31 12:03:04;;;;;;;7.50;1.80;;;20.70;99.90;;;;;;5070548;28;20500;-83
2023/05/31 12:05:30;;;;;;;3.42;1.30;;;20.50;99.90;;;;;;5068785;28;20104;-83
2023/05/31 12:07:56;;;;;;;3.70;1.10;;;20.40;99.90;;;;;;5053152;28;20507;-83
2023/05/31 12:10:30;;;;;;;3.80;1.48;;;20.40;99.90;;;;;;5035973;28;20044;-83
2023/05/31 12:12:58;;;;;;;2.63;1.35;;;20.20;99.90;;;;;;5052859;28;20086;-83
2023/05/31 12:15:25;;;;;;;3.25;1.42;;;20.10;99.90;;;;;;5069919;28;20040;-83
2023/05/31 12:17:51;;;;;;;4.75;1.38;;;20.00;99.90;;;;;;5035988;28;20040;-82
2023/05/31 12:20:17;;;;;;;4.72;1.30;;;20.00;99.90;;;;;;5069533;28;20109;-84
2023/05/31 12:22:43;;;;;;;6.95;1.77;;;20.10;99.90;;;;;;5034716;28;20047;-84
2023/05/31 12:25:09;;;;;;;3.33;1.65;;;20.20;99.90;;;;;;5035709;28;20040;-87
2023/05/31 12:27:35;;;;;;;5.28;1.50;;;20.30;99.90;;;;;;5067470;28;20051;-83
2023/05/31 12:30:02;;;;;;;5.90;2.08;;;20.30;99.90;;;;;;5051750;28;20051;-84
2023/05/31 12:32:28;;;;;;;3.63;1.30;;;20.20;99.90;;;;;;5068771;28;20048;-83
2023/05/31 12:35:14;;;;;;;8.00;2.13;;;20.40;99.90;;;;;;5052414;28;20047;-85
2023/05/31 12:37:40;;;;;;;4.53;2.42;;;20.60;99.90;;;;;;5051969;28;20048;-85
2023/05/31 12:40:14;;;;;;;4.70;2.38;;;20.60;99.90;;;;;;5051004;28;20098;-85
2023/05/31 12:42:40;;;;;;;5.53;2.78;;;20.60;99.90;;;;;;5052417;28;20512;-84
2023/05/31 12:45:06;;;;;;;6.15;2.42;;;20.60;99.90;;;;;;5051687;28;20040;-84
2023/05/31 12:47:36;;;;;;;4.03;2.38;;;20.60;99.90;;;;;;5051733;28;20095;-85
2023/05/31 12:50:07;;;;;;;9.77;3.03;;;20.60;99.90;;;;;;5036588;28;20074;-87
2023/05/31 12:52:38;;;;;;;7.68;2.05;;;20.50;99.90;;;;;;5068725;28;20131;-84
2023/05/31 12:55:05;;;;;;;5.30;2.33;;;20.50;99.90;;;;;;5052478;28;20051;-84